Time,TemperatureF,DewpointF,PressureIn,WindDirection,WindDirectionDegrees,WindSpeedMPH,WindSpeedGustMPH,Humidity,HourlyPrecipIn,Conditions,Clouds,dailyrainin,SoftwareType,DateUTC
2013-03-22 00:41:00,10.8,1.0,30.16,SSW,194,0.0,0.0,64,0.00,,,0.00,weatherlink.com 1.10,2013-03-22 08:41:00,
2013-03-22 00:56:00,11.5,1.0,30.16,SSW,194,0.0,0.0,63,0.00,,,0.00,weatherlink.com 1.10,2013-03-22 08:56:00,
2013-03-22 01:11:00,11.5,1.0,30.16,SSW,194,0.0,0.0,62,0.00,,,0.00,weatherlink.com 1.10,2013-03-22 09:11:00,
2013-03-22 01:26:00,11.3,1.0,30.15,SSW,194,0.0,0.0,62,0.00,,,0.00,weatherlink.com 1.10,2013-03-22 09:26:00,
2013-03-22 01:41:00,11.2,1.0,30.16,SSW,194,0.0,0.0,64,0.00,,,0.00,weatherlink.com 1.10,2013-03-22 09:41:00,
2013-03-22 01:56:00,11.2,1.0,30.15,SSW,194,0.0,0.0,64,0.00,,,0.00,weatherlink.com 1.10,2013-03-22 09:56:00,
2013-03-22 02:11:00,11.6,0.0,30.15,SSW,194,0.0,0.0,61,0.00,,,0.00,weatherlink.com 1.10,2013-03-22 10:11:00,
2013-03-22 02:41:00,11.5,1.0,30.14,SSW,194,0.0,0.0,64,0.00,,,0.00,weatherlink.com 1.10,2013-03-22 10:41:00,
2013-03-22 02:56:00,11.4,1.0,30.14,SSW,194,0.0,0.0,62,0.00,,,0.00,weatherlink.com 1.10,2013-03-22 10:56:00,
2013-03-22 03:11:00,11.5,2.0,30.13,SSW,194,0.0,0.0,65,0.00,,,0.00,weatherlink.com 1.10,2013-03-22 11:11:00,
2013-03-22 03:26:00,11.1,2.0,30.12,SSW,194,0.0,0.0,66,0.00,,,0.00,weatherlink.com 1.10,2013-03-22 11:26:00,
2013-03-22 03:41:00,11.1,1.0,30.12,SSW,194,0.0,0.0,65,0.00,,,0.00,weatherlink.com 1.10,2013-03-22 11:41:00,
2013-03-22 03:56:00,11.1,2.0,30.11,SSW,194,0.0,0.0,66,0.00,,,0.00,weatherlink.com 1.10,2013-03-22 11:56:00,
2013-03-22 04:11:00,11.5,2.0,30.11,SSW,194,0.0,0.0,65,0.00,,,0.00,weatherlink.com 1.10,2013-03-22 12:11:00,
2013-03-22 04:26:00,11.7,1.0,30.11,SSW,194,0.0,0.0,63,0.00,,,0.00,weatherlink.com 1.10,2013-03-22 12:26:00,
2013-03-22 04:41:00,11.9,2.0,30.11,SSW,194,0.0,0.0,64,0.00,,,0.00,weatherlink.com 1.10,2013-03-22 12:41:00,
2013-03-22 04:56:00,11.7,2.0,30.10,SSW,194,0.0,0.0,65,0.00,,,0.00,weatherlink.com 1.10,2013-03-22 12:56:00,
2013-03-22 05:11:00,11.6,1.0,30.10,SSW,194,0.0,0.0,63,0.00,,,0.00,weatherlink.com 1.10,2013-03-22 13:11:00,
2013-03-22 05:26:00,11.6,2.0,30.09,SE,145,0.0,0.0,64,0.00,,,0.00,weatherlink.com 1.10,2013-03-22 13:26:00,
2013-03-22 05:41:00,11.6,3.0,30.09,SE,145,0.0,0.0,67,0.00,,,0.00,weatherlink.com 1.10,2013-03-22 13:41:00,
2013-03-22 05:57:00,11.8,3.0,30.08,SE,145,0.0,0.0,67,0.00,,,0.00,weatherlink.com 1.10,2013-03-22 13:57:00,
2013-03-22 06:12:00,11.8,3.0,30.07,SE,145,0.0,0.0,67,0.00,,,0.00,weatherlink.com 1.10,2013-03-22 14:12:00,
2013-03-22 06:27:00,12.1,2.0,30.07,SW,217,0.0,0.0,64,0.00,,,0.00,weatherlink.com 1.10,2013-03-22 14:27:00,
2013-03-22 06:42:00,12.2,2.0,30.07,SW,217,0.0,0.0,64,0.00,,,0.00,weatherlink.com 1.10,2013-03-22 14:42:00,
2013-03-22 06:57:00,12.4,2.0,30.07,West,267,0.0,1.0,62,0.00,,,0.00,weatherlink.com 1.10,2013-03-22 14:57:00,
2013-03-22 07:12:00,12.6,2.0,30.06,West,267,0.0,1.0,63,0.00,,,0.00,weatherlink.com 1.10,2013-03-22 15:12:00,
2013-03-22 07:27:00,13.0,3.0,30.04,NNE,25,0.0,1.0,64,0.00,,,0.00,weatherlink.com 1.10,2013-03-22 15:27:00,
2013-03-22 07:42:00,13.5,3.0,30.03,WSW,249,0.0,1.0,63,0.00,,,0.00,weatherlink.com 1.10,2013-03-22 15:42:00,
2013-03-22 07:57:00,14.0,3.0,30.03,East,98,0.0,2.0,61,0.00,,,0.00,weatherlink.com 1.10,2013-03-22 15:57:00,
2013-03-22 08:12:00,14.4,3.0,30.03,East,86,0.0,2.0,61,0.00,,,0.00,weatherlink.com 1.10,2013-03-22 16:12:00,
2013-03-22 08:27:00,14.6,4.0,30.02,SSW,211,0.0,2.0,62,0.00,,,0.00,weatherlink.com 1.10,2013-03-22 16:27:00,
2013-03-22 08:42:00,15.4,3.0,30.02,East,99,0.0,2.0,58,0.00,,,0.00,weatherlink.com 1.10,2013-03-22 16:42:00,
2013-03-22 08:58:00,16.0,3.0,30.01,East,100,0.0,3.0,56,0.00,,,0.00,weatherlink.com 1.10,2013-03-22 16:58:00,
2013-03-22 09:12:00,16.6,3.0,30.00,SW,236,0.0,2.0,55,0.00,,,0.00,weatherlink.com 1.10,2013-03-22 17:12:00,
2013-03-22 09:27:00,16.9,3.0,30.00,East,97,1.0,6.0,55,0.00,,,0.00,weatherlink.com 1.10,2013-03-22 17:27:00,
2013-03-22 09:42:00,17.0,4.0,29.99,ESE,110,0.0,2.0,57,0.00,,,0.00,weatherlink.com 1.10,2013-03-22 17:42:00,
2013-03-22 09:57:00,17.5,4.0,29.99,East,87,0.0,2.0,55,0.00,,,0.00,weatherlink.com 1.10,2013-03-22 17:57:00,
2013-03-22 10:12:00,18.2,4.0,29.99,SW,217,0.0,2.0,55,0.00,,,0.00,weatherlink.com 1.10,2013-03-22 18:12:00,
2013-03-22 10:27:00,19.1,4.0,29.98,East,82,1.0,2.0,51,0.00,,,0.00,weatherlink.com 1.10,2013-03-22 18:27:00,
2013-03-22 10:42:00,19.8,4.0,29.98,East,98,1.0,2.0,51,0.00,,,0.00,weatherlink.com 1.10,2013-03-22 18:42:00,
2013-03-22 10:58:00,20.5,6.0,29.97,ESE,117,0.0,1.0,53,0.00,,,0.00,weatherlink.com 1.10,2013-03-22 18:58:00,
2013-03-22 11:13:00,21.3,6.0,29.96,WSW,242,0.0,2.0,51,0.00,,,0.00,weatherlink.com 1.10,2013-03-22 19:13:00,
2013-03-22 11:28:00,22.7,6.0,29.96,South,172,0.0,2.0,49,0.00,,,0.00,weatherlink.com 1.10,2013-03-22 19:28:00,
2013-03-22 11:43:00,23.6,7.0,29.96,ESE,113,1.0,6.0,49,0.00,,,0.00,weatherlink.com 1.10,2013-03-22 19:43:00,
2013-03-22 11:58:00,24.5,8.0,29.95,East,97,0.0,4.0,50,0.00,,,0.00,weatherlink.com 1.10,2013-03-22 19:58:00,
2013-03-22 12:13:00,24.7,7.0,29.95,East,101,1.0,3.0,46,0.00,,,0.00,weatherlink.com 1.10,2013-03-22 20:13:00,
2013-03-22 12:28:00,25.1,7.0,29.94,East,94,2.0,2.0,47,0.00,,,0.00,weatherlink.com 1.10,2013-03-22 20:28:00,
2013-03-22 12:43:00,25.8,6.0,29.93,South,177,0.0,4.0,43,0.00,,,0.00,weatherlink.com 1.10,2013-03-22 20:43:00,
2013-03-22 12:58:00,26.6,7.0,29.93,SSE,158,0.0,3.0,43,0.00,,,0.00,weatherlink.com 1.10,2013-03-22 20:58:00,
2013-03-22 13:13:00,27.5,7.0,29.93,East,92,0.0,4.0,41,0.00,,,0.00,weatherlink.com 1.10,2013-03-22 21:13:00,
2013-03-22 13:28:00,28.0,8.0,29.92,SW,226,0.0,2.0,43,0.00,,,0.00,weatherlink.com 1.10,2013-03-22 21:28:00,
2013-03-22 13:43:00,29.0,7.0,29.92,SW,229,0.0,2.0,40,0.00,,,0.00,weatherlink.com 1.10,2013-03-22 21:43:00,
2013-03-22 13:58:00,30.1,10.0,29.91,SSW,210,0.0,1.0,43,0.00,,,0.00,weatherlink.com 1.10,2013-03-22 21:58:00,
2013-03-22 14:13:00,30.5,9.0,29.91,SSW,195,0.0,3.0,40,0.00,,,0.00,weatherlink.com 1.10,2013-03-22 22:13:00,
2013-03-22 14:28:00,30.4,9.0,29.90,SSE,158,1.0,4.0,41,0.00,,,0.00,weatherlink.com 1.10,2013-03-22 22:28:00,
2013-03-22 14:43:00,30.6,9.0,29.90,SSE,167,0.0,2.0,41,0.00,,,0.00,weatherlink.com 1.10,2013-03-22 22:43:00,
2013-03-22 14:58:00,30.9,9.0,29.89,SSW,207,0.0,2.0,40,0.00,,,0.00,weatherlink.com 1.10,2013-03-22 22:58:00,
2013-03-22 15:13:00,31.3,8.0,29.89,SSW,203,0.0,2.0,38,0.00,,,0.00,weatherlink.com 1.10,2013-03-22 23:13:00,
2013-03-22 15:28:00,31.6,10.0,29.88,South,169,0.0,3.0,40,0.00,,,0.00,weatherlink.com 1.10,2013-03-22 23:28:00,
2013-03-22 15:43:00,31.6,8.0,29.87,SE,136,3.0,4.0,37,0.00,,,0.00,weatherlink.com 1.10,2013-03-22 23:43:00,
2013-03-22 15:58:00,31.6,9.0,29.87,SSE,166,0.0,2.0,39,0.00,,,0.00,weatherlink.com 1.10,2013-03-22 23:58:00,
2013-03-22 16:13:00,32.1,10.0,29.86,SSE,158,0.0,2.0,39,0.00,,,0.00,weatherlink.com 1.10,2013-03-23 00:13:00,
2013-03-22 16:29:00,31.4,12.0,29.86,SSE,148,0.0,4.0,44,0.00,,,0.00,weatherlink.com 1.10,2013-03-23 00:29:00,
2013-03-22 16:44:00,31.2,10.0,29.85,SW,217,0.0,2.0,42,0.00,,,0.00,weatherlink.com 1.10,2013-03-23 00:44:00,
2013-03-22 16:59:00,31.0,12.0,29.85,ENE,77,0.0,2.0,45,0.00,,,0.00,weatherlink.com 1.10,2013-03-23 00:59:00,
2013-03-22 17:14:00,31.0,11.0,29.84,SSW,204,0.0,4.0,44,0.00,,,0.00,weatherlink.com 1.10,2013-03-23 01:14:00,
2013-03-22 17:29:00,30.8,13.0,29.84,ESE,113,0.0,4.0,47,0.00,,,0.00,weatherlink.com 1.10,2013-03-23 01:29:00,
2013-03-22 17:44:00,30.5,10.0,29.83,SSE,152,0.0,3.0,43,0.00,,,0.00,weatherlink.com 1.10,2013-03-23 01:44:00,
2013-03-22 17:59:00,30.5,11.0,29.83,SE,145,0.0,1.0,45,0.00,,,0.00,weatherlink.com 1.10,2013-03-23 01:59:00,
2013-03-22 18:14:00,30.2,13.0,29.82,East,101,1.0,2.0,50,0.00,,,0.00,weatherlink.com 1.10,2013-03-23 02:14:00,
2013-03-22 18:29:00,30.0,13.0,29.82,ESE,107,1.0,4.0,49,0.00,,,0.00,weatherlink.com 1.10,2013-03-23 02:29:00,
2013-03-22 18:44:00,29.7,13.0,29.81,SW,236,0.0,1.0,49,0.00,,,0.00,weatherlink.com 1.10,2013-03-23 02:44:00,
2013-03-22 18:59:00,29.0,11.0,29.81,ESE,121,0.0,1.0,48,0.00,,,0.00,weatherlink.com 1.10,2013-03-23 02:59:00,
2013-03-22 19:14:00,28.9,12.0,29.81,South,191,0.0,1.0,49,0.00,,,0.00,weatherlink.com 1.10,2013-03-23 03:14:00,
2013-03-22 19:29:00,28.7,11.0,29.80,East,98,0.0,2.0,48,0.00,,,0.00,weatherlink.com 1.10,2013-03-23 03:29:00,
2013-03-22 19:44:00,28.4,14.0,29.80,WSW,255,0.0,1.0,55,0.00,,,0.00,weatherlink.com 1.10,2013-03-23 03:44:00,
2013-03-22 19:59:00,28.1,13.0,29.80,SSW,200,0.0,1.0,53,0.00,,,0.00,weatherlink.com 1.10,2013-03-23 03:59:00,
2013-03-22 20:14:00,27.9,12.0,29.80,SSW,200,0.0,0.0,51,0.00,,,0.00,weatherlink.com 1.10,2013-03-23 04:14:00,
2013-03-22 20:29:00,27.6,11.0,29.80,SSW,200,0.0,0.0,50,0.00,,,0.00,weatherlink.com 1.10,2013-03-23 04:29:00,
2013-03-22 20:44:00,27.3,11.0,29.80,East,99,0.0,2.0,50,0.00,,,0.00,weatherlink.com 1.10,2013-03-23 04:44:00,
2013-03-22 20:59:00,27.7,10.0,29.80,East,98,0.0,1.0,48,0.00,,,0.00,weatherlink.com 1.10,2013-03-23 04:59:00,
2013-03-22 21:14:00,27.3,11.0,29.80,NE,50,0.0,1.0,51,0.00,,,0.00,weatherlink.com 1.10,2013-03-23 05:14:00,
2013-03-22 21:29:00,27.6,11.0,29.80,NE,51,0.0,1.0,49,0.00,,,0.00,weatherlink.com 1.10,2013-03-23 05:29:00,
2013-03-22 21:44:00,27.6,11.0,29.80,NE,51,0.0,1.0,49,0.00,,,0.00,weatherlink.com 1.10,2013-03-23 05:44:00,
2013-03-22 21:59:00,27.3,11.0,29.80,NE,51,0.0,1.0,51,0.00,,,0.00,weatherlink.com 1.10,2013-03-23 05:59:00,
2013-03-22 22:14:00,27.1,12.0,29.80,NE,51,0.0,1.0,53,0.00,,,0.00,weatherlink.com 1.10,2013-03-23 06:14:00,
2013-03-22 22:44:00,27.0,13.0,29.80,NE,49,0.0,1.0,55,0.00,,,0.00,weatherlink.com 1.10,2013-03-23 06:44:00,
2013-03-22 22:59:00,27.7,14.0,29.80,East,79,0.0,1.0,56,0.00,,,0.00,weatherlink.com 1.10,2013-03-23 06:59:00,
2013-03-22 23:14:00,27.8,13.0,29.80,North,7,1.0,1.0,54,0.00,,,0.00,weatherlink.com 1.10,2013-03-23 07:14:00,
2013-03-22 23:29:00,27.8,13.0,29.80,NNW,328,0.0,1.0,55,0.00,,,0.00,weatherlink.com 1.10,2013-03-23 07:29:00,
2013-03-22 23:44:00,27.2,13.0,29.80,North,352,0.0,0.0,55,0.00,,,0.00,weatherlink.com 1.10,2013-03-23 07:44:00,
2013-03-22 23:59:00,26.7,13.0,29.80,North,352,0.0,0.0,56,0.00,,,0.00,weatherlink.com 1.10,2013-03-23 07:59:00,